createdAt,value
2022-10-09T00:01:28.193Z,3.50
2022-10-09T00:03:57.478Z,2.63
2022-10-09T00:06:29.327Z,3.25
2022-10-09T00:08:56.897Z,2.67
2022-10-09T00:11:27.330Z,3.75
2022-10-09T00:13:56.252Z,2.60
2022-10-09T00:16:24.496Z,3.15
2022-10-09T00:18:52.675Z,3.28
2022-10-09T00:21:25.397Z,3.10
2022-10-09T00:23:55.339Z,2.92
2022-10-09T00:26:22.958Z,2.97
2022-10-09T00:28:50.487Z,3.13
2022-10-09T00:31:18.111Z,3.28
2022-10-09T00:33:45.442Z,3.20
2022-10-09T00:36:20.131Z,3.28
2022-10-09T00:38:47.544Z,2.85
2022-10-09T00:41:26.195Z,2.75
2022-10-09T00:44:00.196Z,3.20
2022-10-09T00:46:49.435Z,3.80
2022-10-09T00:49:33.427Z,2.97
2022-10-09T00:52:07.349Z,3.17
2022-10-09T00:54:39.948Z,3.20
2022-10-09T00:57:08.673Z,3.45
2022-10-09T00:59:36.469Z,3.60
2022-10-09T01:02:03.627Z,3.88
2022-10-09T01:04:31.266Z,3.20
2022-10-09T01:07:25.442Z,3.38
2022-10-09T01:10:01.776Z,2.90
2022-10-09T01:12:59.718Z,2.90
2022-10-09T01:15:51.012Z,3.55
2022-10-09T01:18:28.892Z,2.97
2022-10-09T01:21:33.423Z,3.10
2022-10-09T01:24:15.051Z,3.35
2022-10-09T01:27:23.754Z,2.85
2022-10-09T01:30:02.392Z,3.38
2022-10-09T01:32:40.932Z,3.35
2022-10-09T01:35:12.618Z,3.10
2022-10-09T01:37:43.213Z,2.58
2022-10-09T01:40:13.937Z,3.63
2022-10-09T01:42:41.097Z,3.38
2022-10-09T01:45:08.822Z,3.20
2022-10-09T01:47:37.013Z,3.53
2022-10-09T01:50:36.468Z,3.53
2022-10-09T01:53:18.130Z,3.50
2022-10-09T01:56:03.904Z,3.08
2022-10-09T01:58:50.341Z,3.40
2022-10-09T02:01:26.962Z,3.20
2022-10-09T02:03:58.677Z,3.22
2022-10-09T02:06:28.234Z,2.75
2022-10-09T02:08:56.205Z,3.40
2022-10-09T02:11:27.788Z,3.10
2022-10-09T02:13:56.209Z,2.90
2022-10-09T02:16:42.108Z,3.65
2022-10-09T02:19:25.293Z,3.22
2022-10-09T02:22:06.523Z,3.13
2022-10-09T02:24:34.750Z,3.28
2022-10-09T02:27:02.958Z,3.67
2022-10-09T02:29:29.896Z,3.20
2022-10-09T02:31:56.727Z,3.30
2022-10-09T02:34:23.787Z,3.47
2022-10-09T02:36:50.832Z,3.28
2022-10-09T02:39:18.179Z,3.58
2022-10-09T02:41:45.072Z,3.88
2022-10-09T02:44:11.957Z,2.95
2022-10-09T02:46:39.050Z,3.25
2022-10-09T02:49:07.000Z,3.70
2022-10-09T02:51:34.522Z,3.50
2022-10-09T02:54:02.035Z,2.95
2022-10-09T02:56:29.436Z,3.45
2022-10-09T02:58:56.533Z,3.35
2022-10-09T03:01:24.062Z,3.40
2022-10-09T03:03:51.237Z,3.20
2022-10-09T03:06:23.350Z,3.10
2022-10-09T03:08:52.540Z,2.63
2022-10-09T03:11:22.191Z,3.38
2022-10-09T03:13:49.565Z,3.20
2022-10-09T03:16:23.708Z,3.08
2022-10-09T03:18:52.225Z,2.78
2022-10-09T03:21:22.967Z,3.00
2022-10-09T03:23:50.583Z,2.75
2022-10-09T03:26:24.750Z,2.67
2022-10-09T03:28:54.282Z,2.85
2022-10-09T03:31:51.827Z,3.03
2022-10-09T03:34:12.693Z,3.35
2022-10-09T03:36:39.956Z,2.95
2022-10-09T03:39:07.013Z,3.60
2022-10-09T03:41:33.854Z,3.28
2022-10-09T03:44:00.882Z,3.20
2022-10-09T03:46:28.013Z,3.35
2022-10-09T03:48:55.117Z,3.05
2022-10-09T03:51:21.972Z,3.20
2022-10-09T03:53:48.851Z,2.90
2022-10-09T03:56:15.709Z,3.40
2022-10-09T03:58:42.550Z,3.13
2022-10-09T04:01:09.685Z,3.45
2022-10-09T04:03:36.606Z,2.92
2022-10-09T04:06:03.729Z,3.03
2022-10-09T04:08:30.637Z,2.90
2022-10-09T04:11:01.902Z,3.38
2022-10-09T04:13:29.204Z,3.38
2022-10-09T04:15:57.297Z,3.35
2022-10-09T04:18:24.980Z,3.92
2022-10-09T04:20:54.804Z,2.88
2022-10-09T04:23:25.719Z,3.22
2022-10-09T04:25:59.473Z,2.97
2022-10-09T04:28:28.360Z,2.95
2022-10-09T04:30:57.398Z,3.45
2022-10-09T04:33:26.179Z,3.25
2022-10-09T04:35:55.174Z,3.63
2022-10-09T04:38:22.992Z,3.90
2022-10-09T04:41:01.312Z,3.92
2022-10-09T04:43:29.308Z,3.08
2022-10-09T04:45:57.058Z,2.75
2022-10-09T04:48:24.716Z,3.40
2022-10-09T04:50:51.554Z,3.47
2022-10-09T04:53:18.411Z,3.83
2022-10-09T04:55:45.811Z,3.80
2022-10-09T04:58:14.011Z,3.28
2022-10-09T05:00:46.416Z,3.25
2022-10-09T05:03:13.439Z,3.50
2022-10-09T05:05:40.366Z,3.38
2022-10-09T05:08:07.227Z,4.05
2022-10-09T05:10:34.177Z,3.58
2022-10-09T05:13:01.724Z,3.58
2022-10-09T05:15:28.568Z,3.75
2022-10-09T05:17:55.459Z,4.07
2022-10-09T05:20:22.496Z,4.10
2022-10-09T05:22:49.707Z,3.65
2022-10-09T05:25:16.713Z,4.03
2022-10-09T05:27:43.615Z,3.80
2022-10-09T05:30:11.227Z,3.80
2022-10-09T05:32:38.161Z,3.90
2022-10-09T05:35:05.596Z,3.83
2022-10-09T05:37:32.428Z,4.28
2022-10-09T05:39:59.331Z,4.15
2022-10-09T05:42:26.184Z,3.67
2022-10-09T05:44:52.982Z,3.95
2022-10-09T05:47:19.923Z,3.72
2022-10-09T05:49:46.971Z,3.47
2022-10-09T05:52:13.849Z,3.22
2022-10-09T05:54:42.001Z,3.45
2022-10-09T05:57:09.873Z,4.10
2022-10-09T05:59:36.806Z,4.75
2022-10-09T06:02:04.284Z,4.93
2022-10-09T06:04:31.399Z,3.90
2022-10-09T06:06:58.256Z,4.00
2022-10-09T06:09:26.259Z,3.72
2022-10-09T06:11:55.339Z,3.90
2022-10-09T06:14:22.533Z,4.32
2022-10-09T06:16:50.372Z,3.83
2022-10-09T06:19:19.419Z,3.78
2022-10-09T06:21:47.180Z,3.20
2022-10-09T06:24:25.802Z,3.45
2022-10-09T06:26:55.097Z,3.47
2022-10-09T06:29:22.024Z,4.00
2022-10-09T06:31:49.007Z,3.50
2022-10-09T06:34:15.942Z,4.25
2022-10-09T06:36:42.936Z,4.68
2022-10-09T06:39:10.728Z,4.50
2022-10-09T06:41:38.054Z,4.38
2022-10-09T06:44:23.007Z,4.60
2022-10-09T06:46:50.409Z,4.20
2022-10-09T06:49:17.297Z,4.55
2022-10-09T06:51:44.110Z,3.92
2022-10-09T06:54:14.214Z,3.97
2022-10-09T06:56:41.186Z,3.55
2022-10-09T06:59:08.565Z,3.90
2022-10-09T07:01:35.712Z,4.05
2022-10-09T07:04:07.135Z,3.78
2022-10-09T07:06:38.727Z,4.57
2022-10-09T07:09:08.837Z,4.05
2022-10-09T07:11:39.997Z,3.95
2022-10-09T07:14:09.377Z,3.40
2022-10-09T07:16:41.001Z,3.78
2022-10-09T07:19:11.108Z,4.15
2022-10-09T07:21:41.794Z,3.25
2022-10-09T07:24:11.080Z,4.10
2022-10-09T07:26:42.544Z,3.78
2022-10-09T07:29:13.163Z,3.33
2022-10-09T07:31:40.197Z,3.10
2022-10-09T07:34:07.837Z,3.63
2022-10-09T07:36:35.744Z,3.83
2022-10-09T07:39:04.247Z,4.00
2022-10-09T07:41:31.413Z,3.50
2022-10-09T07:43:58.768Z,3.05
2022-10-09T07:46:32.150Z,3.63
2022-10-09T07:49:00.114Z,3.83
2022-10-09T07:51:29.505Z,3.97
2022-10-09T07:53:57.639Z,4.28
2022-10-09T07:56:39.224Z,3.60
2022-10-09T07:59:12.624Z,3.47
2022-10-09T08:01:40.475Z,3.40
2022-10-09T08:04:07.956Z,3.63
2022-10-09T08:06:35.944Z,3.65
2022-10-09T08:09:06.728Z,3.20
2022-10-09T08:11:33.778Z,3.67
2022-10-09T08:14:00.860Z,3.50
2022-10-09T08:16:28.980Z,3.10
2022-10-09T08:19:00.966Z,2.72
2022-10-09T08:21:28.631Z,3.42
2022-10-09T08:23:57.996Z,2.88
2022-10-09T08:26:30.631Z,2.67
2022-10-09T08:29:04.224Z,3.20
2022-10-09T08:31:32.647Z,2.72
2022-10-09T08:34:02.945Z,3.97
2022-10-09T08:36:30.572Z,3.30
2022-10-09T08:38:57.436Z,2.65
2022-10-09T08:41:33.188Z,3.05
2022-10-09T08:44:23.321Z,3.15
2022-10-09T08:47:03.624Z,3.00
2022-10-09T08:50:10.110Z,2.83
2022-10-09T08:52:50.120Z,2.70
2022-10-09T08:55:26.391Z,3.10
2022-10-09T08:58:00.847Z,2.80
2022-10-09T09:00:44.892Z,3.00
2022-10-09T09:03:30.462Z,2.95
2022-10-09T09:09:15.995Z,2.38
2022-10-09T09:12:19.223Z,2.53
2022-10-09T09:15:20.390Z,3.53
2022-10-09T09:18:39.551Z,2.20
2022-10-09T09:21:44.942Z,2.40
2022-10-09T09:24:22.080Z,2.15
2022-10-09T09:26:56.327Z,2.53
2022-10-09T09:29:26.480Z,2.10
2022-10-09T09:32:01.118Z,2.05
2022-10-09T09:34:39.039Z,2.00
2022-10-09T09:37:06.010Z,2.08
2022-10-09T09:40:30.959Z,2.00
2022-10-09T09:42:21.845Z,2.22
2022-10-09T09:45:02.069Z,2.20
2022-10-09T09:47:49.912Z,1.75
2022-10-09T09:50:48.487Z,1.75
2022-10-09T09:53:33.529Z,2.20
2022-10-09T09:56:00.983Z,1.70
2022-10-09T09:58:38.562Z,1.38
2022-10-09T10:01:07.629Z,1.98
2022-10-09T10:03:36.397Z,2.05
2022-10-09T10:06:04.124Z,1.52
2022-10-09T10:08:34.368Z,1.60
2022-10-09T10:11:06.609Z,1.77
2022-10-09T10:13:45.899Z,1.48
2022-10-09T10:16:26.536Z,1.38
2022-10-09T10:18:56.124Z,1.55
2022-10-09T10:21:23.215Z,1.23
2022-10-09T10:24:05.662Z,1.20
2022-10-09T10:26:58.093Z,1.30
2022-10-09T10:29:38.992Z,1.08
2022-10-09T10:32:20.652Z,1.30
2022-10-09T10:35:02.421Z,1.20
2022-10-09T10:37:52.642Z,1.00
2022-10-09T10:40:30.779Z,1.00
2022-10-09T10:43:10.620Z,1.25
2022-10-09T10:46:12.976Z,0.90
2022-10-09T10:48:47.164Z,1.05
2022-10-09T10:51:37.761Z,0.70
2022-10-09T10:54:23.187Z,0.73
2022-10-09T11:00:00.556Z,1.23
2022-10-09T11:02:52.928Z,1.50
2022-10-09T11:53:13.426Z,1.02
2022-10-09T11:55:40.616Z,1.15
2022-10-09T11:58:16.312Z,0.85
2022-10-09T12:00:43.853Z,0.90
2022-10-09T12:03:35.156Z,0.80
2022-10-09T12:06:17.483Z,0.80
2022-10-09T12:09:03.414Z,0.68
2022-10-09T12:11:32.656Z,0.82
2022-10-09T12:14:05.206Z,0.70
2022-10-09T12:16:39.545Z,0.90
2022-10-09T12:19:25.595Z,0.77
2022-10-09T12:22:06.978Z,0.68
2022-10-09T12:24:45.177Z,0.60
2022-10-09T12:27:26.669Z,0.50
2022-10-09T12:30:21.724Z,0.70
2022-10-09T12:32:58.462Z,0.80
2022-10-09T12:35:35.063Z,0.80
2022-10-09T12:38:02.849Z,0.38
2022-10-09T12:40:33.872Z,0.88
2022-10-09T12:43:07.999Z,0.60
2022-10-09T12:45:44.845Z,0.73
2022-10-09T12:49:23.918Z,0.68
2022-10-09T12:51:58.134Z,0.70
2022-10-09T12:54:29.552Z,0.73
2022-10-09T12:56:59.452Z,0.65
2022-10-09T12:59:28.872Z,0.88
2022-10-09T13:02:00.056Z,0.50
2022-10-09T13:04:33.575Z,0.70
2022-10-09T13:07:07.450Z,0.65
2022-10-09T13:09:38.619Z,0.90
2022-10-09T13:12:24.262Z,0.85
2022-10-09T13:15:31.925Z,1.15
2022-10-09T13:17:59.869Z,0.77
2022-10-09T13:20:32.547Z,1.00
2022-10-09T13:23:06.039Z,0.60
2022-10-09T13:25:42.978Z,0.80
2022-10-09T13:28:20.222Z,0.70
2022-10-09T13:30:47.705Z,0.82
2022-10-09T13:33:16.330Z,0.65
2022-10-09T13:35:43.899Z,0.60
2022-10-09T13:38:17.247Z,1.10
2022-10-09T13:40:44.983Z,1.13
2022-10-09T13:43:23.901Z,0.90
2022-10-09T13:45:50.798Z,0.85
2022-10-09T13:48:18.178Z,1.00
2022-10-09T13:50:45.977Z,0.80
2022-10-09T13:53:12.886Z,0.85
2022-10-09T13:55:40.112Z,1.23
2022-10-09T13:58:07.230Z,0.98
2022-10-09T14:00:34.277Z,0.95
2022-10-09T14:03:01.213Z,1.02
2022-10-09T14:05:28.244Z,0.60
2022-10-09T14:07:55.450Z,1.10
2022-10-09T14:10:23.886Z,0.90
2022-10-09T14:12:53.230Z,0.70
2022-10-09T14:15:20.482Z,0.80
2022-10-09T14:17:47.805Z,0.90
2022-10-09T14:20:14.990Z,0.70
2022-10-09T14:22:41.997Z,0.77
2022-10-09T14:25:09.983Z,0.93
2022-10-09T14:27:54.920Z,0.60
2022-10-09T14:30:22.105Z,1.10
2022-10-09T14:32:49.228Z,0.82
2022-10-09T14:35:20.567Z,0.68
2022-10-09T14:37:48.307Z,1.00
2022-10-09T14:40:19.917Z,0.93
2022-10-09T14:42:48.175Z,1.00
2022-10-09T14:45:15.145Z,1.42
2022-10-09T14:47:42.018Z,1.65
2022-10-09T14:50:09.544Z,2.13
2022-10-09T14:52:36.668Z,1.40
2022-10-09T14:55:03.870Z,1.00
2022-10-09T14:57:35.208Z,0.93
2022-10-09T15:00:05.538Z,1.02
2022-10-09T15:02:32.731Z,1.10
2022-10-09T15:04:59.603Z,1.60
2022-10-09T15:07:28.299Z,1.00
2022-10-09T15:09:56.901Z,0.93
2022-10-09T15:12:24.004Z,0.90
2022-10-09T15:14:50.819Z,1.00
2022-10-09T15:17:17.715Z,0.90
2022-10-09T15:19:44.599Z,1.20
2022-10-09T15:22:12.955Z,0.90
2022-10-09T15:24:39.959Z,1.10
2022-10-09T15:27:06.999Z,1.20
2022-10-09T15:29:33.891Z,1.20
2022-10-09T15:32:02.045Z,1.08
2022-10-09T15:34:30.794Z,1.10
2022-10-09T15:36:57.637Z,1.17
2022-10-09T15:39:24.991Z,1.10
2022-10-09T15:41:51.873Z,1.20
2022-10-09T15:44:20.815Z,0.93
2022-10-09T15:46:49.074Z,1.20
2022-10-09T15:49:16.771Z,0.93
2022-10-09T15:51:43.886Z,0.93
2022-10-09T15:54:12.925Z,1.40
2022-10-09T15:56:41.328Z,1.40
2022-10-09T15:59:12.693Z,2.00
2022-10-09T16:01:39.870Z,2.08
2022-10-09T16:04:06.972Z,1.00
2022-10-09T16:06:34.083Z,1.00
2022-10-09T16:09:01.346Z,1.50
2022-10-09T16:14:52.888Z,1.45
2022-10-09T16:17:20.403Z,1.70
2022-10-09T16:19:47.502Z,2.03
2022-10-09T16:22:15.037Z,1.70
2022-10-09T16:24:42.226Z,1.33
2022-10-09T16:27:14.761Z,1.10
2022-10-09T16:30:17.629Z,1.35
2022-10-09T16:33:11.591Z,1.17
2022-10-09T16:35:51.035Z,1.00
2022-10-09T16:38:18.641Z,1.55
2022-10-09T16:41:01.341Z,1.27
2022-10-09T16:43:32.304Z,1.27
2022-10-09T16:46:19.428Z,1.17
2022-10-09T16:48:48.574Z,1.10
2022-10-09T16:51:20.715Z,1.00
2022-10-09T16:53:58.031Z,1.10
2022-10-09T16:56:30.028Z,1.10
2022-10-09T16:58:59.966Z,0.95
2022-10-09T17:01:27.844Z,1.92
2022-10-09T17:03:57.202Z,0.93
2022-10-09T17:06:25.467Z,1.13
2022-10-09T17:08:55.414Z,1.23
2022-10-09T17:11:24.290Z,1.20
2022-10-09T17:13:56.652Z,1.17
2022-10-09T17:16:27.832Z,1.30
2022-10-09T17:18:55.766Z,1.45
2022-10-09T17:21:23.398Z,1.13
2022-10-09T17:23:55.212Z,1.30
2022-10-09T17:26:25.544Z,1.10
2022-10-09T17:28:54.970Z,0.80
2022-10-09T17:31:24.897Z,0.98
2022-10-09T17:33:57.538Z,1.20
2022-10-09T17:36:28.741Z,1.77
2022-10-09T17:38:56.382Z,1.15
2022-10-09T17:41:26.837Z,1.30
2022-10-09T17:43:56.124Z,1.20
2022-10-09T17:46:25.073Z,1.17
2022-10-09T17:48:53.391Z,1.10
2022-10-09T17:51:29.603Z,1.33
2022-10-09T17:54:05.871Z,1.35
2022-10-09T17:56:35.272Z,1.10
2022-10-09T17:59:02.822Z,1.23
2022-10-09T18:01:30.506Z,1.58
2022-10-09T18:03:58.407Z,1.20
2022-10-09T18:06:26.201Z,1.60
2022-10-09T18:08:57.283Z,1.88
2022-10-09T18:11:28.642Z,1.75
2022-10-09T18:13:56.296Z,1.80
2022-10-09T18:16:35.368Z,1.60
2022-10-09T18:19:21.760Z,1.75
2022-10-09T18:21:50.287Z,2.30
2022-10-09T18:24:17.706Z,2.10
2022-10-09T18:26:44.759Z,2.85
2022-10-09T18:29:11.870Z,2.80
2022-10-09T18:31:39.243Z,3.10
2022-10-09T18:34:06.595Z,3.05
2022-10-09T18:36:35.015Z,3.72
2022-10-09T18:39:08.324Z,3.45
2022-10-09T18:41:37.705Z,3.17
2022-10-09T18:44:17.486Z,3.03
2022-10-09T18:47:05.225Z,2.88
2022-10-09T18:49:32.797Z,2.80
2022-10-09T18:52:03.084Z,2.90
2022-10-09T18:54:31.334Z,3.42
2022-10-09T18:56:58.833Z,2.63
2022-10-09T18:59:26.224Z,2.95
2022-10-09T19:01:53.925Z,2.90
2022-10-09T19:04:21.775Z,2.50
2022-10-09T19:06:48.903Z,2.50
2022-10-09T19:09:16.272Z,2.47
2022-10-09T19:11:43.188Z,2.58
2022-10-09T19:14:10.323Z,2.80
2022-10-09T19:16:37.590Z,2.80
2022-10-09T19:19:04.777Z,2.75
2022-10-09T19:21:32.089Z,2.70
2022-10-09T19:24:05.959Z,2.90
2022-10-09T19:26:35.511Z,2.63
2022-10-09T19:29:05.088Z,2.35
2022-10-09T19:31:34.632Z,2.80
2022-10-09T19:34:04.400Z,3.10
2022-10-09T19:36:33.418Z,2.67
2022-10-09T19:39:04.099Z,3.15
2022-10-09T19:41:31.435Z,2.88
2022-10-09T19:44:00.128Z,3.15
2022-10-09T19:46:28.074Z,2.97
2022-10-09T19:48:55.110Z,3.10
2022-10-09T19:51:26.385Z,3.50
2022-10-09T19:53:55.053Z,3.10
2022-10-09T19:56:30.187Z,3.67
2022-10-09T20:21:59.369Z,3.30
2022-10-09T20:24:26.570Z,3.38
2022-10-09T20:26:53.633Z,3.25
2022-10-09T20:29:20.460Z,3.88
2022-10-09T20:31:48.819Z,3.70
2022-10-09T20:34:18.600Z,3.33
2022-10-09T20:36:45.453Z,3.00
2022-10-09T20:40:00.947Z,3.35
2022-10-09T20:42:27.747Z,3.17
2022-10-09T20:44:54.674Z,3.10
2022-10-09T20:47:21.597Z,3.35
2022-10-09T20:49:48.641Z,3.33
2022-10-09T20:52:15.587Z,3.45
2022-10-09T20:54:42.452Z,3.08
2022-10-09T20:57:09.379Z,3.33
2022-10-09T20:59:36.224Z,3.83
2022-10-09T21:02:03.171Z,3.42
2022-10-09T21:04:31.439Z,4.38
2022-10-09T21:06:58.395Z,4.00
2022-10-09T21:09:27.534Z,3.72
2022-10-09T21:11:57.850Z,3.63
2022-10-09T21:14:24.734Z,3.50
2022-10-09T21:16:51.561Z,4.00
2022-10-09T21:19:18.408Z,3.53
2022-10-09T21:21:50.026Z,3.80
2022-10-09T21:24:18.000Z,4.10
2022-10-09T21:26:47.044Z,3.78
2022-10-09T21:29:14.569Z,3.22
2022-10-09T21:31:42.379Z,3.67
2022-10-09T21:34:09.406Z,3.40
2022-10-09T21:37:20.536Z,3.25
2022-10-09T21:40:15.274Z,3.60
2022-10-09T21:42:42.326Z,3.25
2022-10-09T21:45:09.593Z,3.83
2022-10-09T21:47:36.490Z,3.60
2022-10-09T21:50:03.658Z,3.70
2022-10-09T21:52:30.510Z,3.35
2022-10-09T21:54:57.343Z,3.85
2022-10-09T21:57:24.300Z,4.15
2022-10-09T21:59:51.127Z,3.40
2022-10-09T22:02:18.213Z,3.75
2022-10-09T22:04:45.003Z,3.95
2022-10-09T22:07:11.822Z,3.95
2022-10-09T22:09:38.596Z,3.67
2022-10-09T22:12:31.386Z,3.58
2022-10-09T22:14:58.193Z,3.25
2022-10-09T22:17:25.222Z,3.97
2022-10-09T22:19:52.116Z,3.70
2022-10-09T22:22:19.067Z,3.70
2022-10-09T22:24:47.152Z,3.38
2022-10-09T22:27:13.977Z,3.60
2022-10-09T22:29:40.788Z,3.42
2022-10-09T22:32:59.022Z,3.50
2022-10-09T22:35:35.363Z,3.75
2022-10-09T22:38:02.199Z,3.42
2022-10-09T22:40:28.986Z,4.05
2022-10-09T22:42:55.792Z,3.50
2022-10-09T22:45:22.806Z,3.90
2022-10-09T22:47:49.613Z,3.88
2022-10-09T22:50:16.427Z,3.40
2022-10-09T22:52:43.234Z,3.60
2022-10-09T22:55:10.212Z,3.30
2022-10-09T22:57:37.135Z,3.78
2022-10-09T23:00:05.710Z,3.38
2022-10-09T23:02:32.562Z,3.50
2022-10-09T23:04:59.420Z,3.47
2022-10-09T23:07:26.444Z,4.13
2022-10-09T23:09:53.249Z,3.40
2022-10-09T23:12:20.152Z,3.33
2022-10-09T23:14:47.058Z,3.08
2022-10-09T23:17:13.978Z,3.40
2022-10-09T23:19:40.844Z,2.85
2022-10-09T23:22:07.618Z,3.00
2022-10-09T23:24:34.443Z,3.35
2022-10-09T23:27:01.277Z,3.67
2022-10-09T23:29:28.132Z,3.22
2022-10-09T23:31:55.025Z,3.13
2022-10-09T23:34:21.943Z,2.85
2022-10-09T23:36:48.773Z,2.95
2022-10-09T23:39:15.692Z,3.38
2022-10-09T23:41:42.595Z,2.53
2022-10-09T23:44:09.401Z,3.28
2022-10-09T23:46:37.679Z,2.63
2022-10-09T23:49:05.483Z,2.42
2022-10-09T23:51:32.854Z,2.40
2022-10-09T23:54:00.105Z,2.50
2022-10-09T23:56:33.883Z,3.47
2022-10-09T23:59:06.045Z,2.47
